Time;durP1;ratioP1;P1;durP2;ratioP2;P2;SDS_P1;SDS_P2;PMS_P1;PMS_P2;Temp;Humidity;BMP_temperature;BMP_pressure;BME280_temperature;BME280_humidity;BME280_pressure;Samples;Min_cycle;Max_cycle;Signal;HPM_P1;HPM_P2
2021/12/13 00:02:16;;;;;;;0.07;0.07;;;1.20;99.90;;;;;;5095291;28;20160;-56
2021/12/13 00:05:07;;;;;;;0.63;0.30;;;1.10;99.90;;;;;;5095457;28;20198;-58
2021/12/13 00:07:38;;;;;;;1.63;0.93;;;1.20;99.90;;;;;;5095431;28;20598;-56
2021/12/13 00:10:17;;;;;;;0.30;0.30;;;1.20;99.90;;;;;;5095087;28;20182;-55
2021/12/13 00:12:48;;;;;;;0.83;0.40;;;1.20;99.90;;;;;;5095010;28;20184;-57
2021/12/13 00:15:25;;;;;;;0.00;0.00;;;1.20;99.90;;;;;;5074507;28;20540;-55
2021/12/13 00:17:52;;;;;;;0.20;0.20;;;1.10;99.90;;;;;;5073693;28;20164;-59
2021/12/13 00:20:37;;;;;;;0.23;0.23;;;1.10;99.90;;;;;;5056766;28;20204;-56
2021/12/13 00:23:23;;;;;;;0.10;0.10;;;1.20;99.90;;;;;;5074528;28;20659;-56
2021/12/13 00:25:56;;;;;;;0.50;0.50;;;1.10;99.90;;;;;;5074543;28;20180;-54
2021/12/13 00:28:25;;;;;;;0.40;0.40;;;1.10;99.90;;;;;;5056760;28;20230;-57
2021/12/13 00:31:00;;;;;;;0.07;0.07;;;1.10;99.90;;;;;;5074358;28;20541;-64
2021/12/13 00:33:43;;;;;;;0.30;0.30;;;1.10;99.90;;;;;;5074633;28;20165;-56
2021/12/13 00:36:17;;;;;;;0.20;0.20;;;1.10;99.90;;;;;;5074185;28;20176;-58
2021/12/13 00:38:50;;;;;;;0.77;0.40;;;1.10;99.90;;;;;;5074265;28;20168;-57
2021/12/13 00:41:19;;;;;;;0.23;0.23;;;1.10;99.90;;;;;;5074391;28;20570;-57
2021/12/13 00:44:04;;;;;;;0.03;0.03;;;1.10;99.90;;;;;;5074188;28;20215;-55
2021/12/13 00:46:31;;;;;;;0.10;0.10;;;1.10;99.90;;;;;;5074289;28;20181;-57
2021/12/13 00:48:59;;;;;;;0.70;0.70;;;1.10;99.90;;;;;;5073822;28;20518;-58
2021/12/13 00:51:34;;;;;;;0.20;0.20;;;1.10;99.90;;;;;;5073938;28;20617;-56
2021/12/13 00:54:18;;;;;;;0.23;0.23;;;1.10;99.90;;;;;;5073600;28;20180;-56
2021/12/13 00:57:03;;;;;;;0.40;0.40;;;1.00;99.90;;;;;;5074069;28;20177;-59
2021/12/13 00:59:37;;;;;;;0.10;0.10;;;1.00;99.90;;;;;;5073977;28;20169;-56
2021/12/13 01:02:18;;;;;;;0.57;0.57;;;1.00;99.90;;;;;;5073711;28;20268;-57
2021/12/13 01:05:13;;;;;;;0.20;0.20;;;1.00;99.90;;;;;;5073787;28;20654;-58
2021/12/13 01:08:00;;;;;;;0.10;0.10;;;1.00;99.90;;;;;;5073653;28;20175;-58
2021/12/13 01:10:48;;;;;;;0.20;0.20;;;1.00;99.90;;;;;;5073605;28;20176;-57
2021/12/13 01:13:35;;;;;;;0.40;0.40;;;1.00;99.90;;;;;;5076670;28;20261;-56
2021/12/13 01:21:41;;;;;;;0.73;0.73;;;1.00;99.90;;;;;;5093803;28;20233;-56
2021/12/13 01:24:41;;;;;;;0.50;0.50;;;1.00;99.90;;;;;;5093289;28;20281;-56
2021/12/13 01:27:06;;;;;;;2.93;0.93;;;1.00;99.90;;;;;;5093224;28;20316;-57
2021/12/13 01:29:31;;;;;;;0.13;0.13;;;1.00;99.90;;;;;;5093640;28;20258;-58
2021/12/13 01:32:01;;;;;;;1.07;0.67;;;1.00;99.90;;;;;;5093511;28;20186;-57
2021/12/13 01:34:29;;;;;;;0.97;0.93;;;0.90;99.90;;;;;;5093340;28;20584;-58
2021/12/13 01:37:10;;;;;;;0.10;0.10;;;1.00;99.90;;;;;;5093316;28;20275;-64
2021/12/13 01:39:41;;;;;;;0.17;0.17;;;0.90;99.90;;;;;;5093462;28;20249;-59
2021/12/13 01:42:17;;;;;;;5.93;1.03;;;0.90;99.90;;;;;;5075112;28;20279;-58
2021/12/13 01:44:46;;;;;;;0.97;0.97;;;0.90;99.90;;;;;;5093149;28;20243;-58
2021/12/13 01:47:21;;;;;;;0.97;0.57;;;0.90;99.90;;;;;;5093041;28;20176;-55
2021/12/13 01:49:52;;;;;;;0.47;0.47;;;0.90;99.90;;;;;;5093236;28;20260;-58
2021/12/13 01:52:31;;;;;;;5.00;0.60;;;0.90;99.90;;;;;;5092852;28;20156;-58
2021/12/13 01:55:01;;;;;;;0.20;0.20;;;0.90;99.90;;;;;;5092670;28;20169;-59
2021/12/13 01:57:40;;;;;;;1.53;1.43;;;0.90;99.90;;;;;;5092802;28;20221;-57
2021/12/13 02:00:18;;;;;;;0.30;0.30;;;0.90;99.90;;;;;;5092810;28;20196;-59
2021/12/13 02:02:47;;;;;;;0.53;0.53;;;0.90;99.90;;;;;;5092873;28;20255;-58
2021/12/13 02:05:13;;;;;;;1.43;1.33;;;0.90;99.90;;;;;;5092467;28;20260;-57
2021/12/13 02:08:07;;;;;;;0.40;0.40;;;0.80;99.90;;;;;;5092863;28;20179;-58
2021/12/13 02:10:35;;;;;;;0.10;0.10;;;0.80;99.90;;;;;;5092739;28;20168;-58
2021/12/13 02:13:06;;;;;;;1.93;1.43;;;0.80;99.90;;;;;;5092161;28;20191;-58
2021/12/13 02:18:24;;;;;;;0.33;0.33;;;0.80;99.90;;;;;;5092645;28;20163;-59
2021/12/13 02:21:02;;;;;;;7.63;2.20;;;0.80;99.90;;;;;;5092743;28;20289;-55
2021/12/13 02:23:28;;;;;;;1.03;1.03;;;0.80;99.90;;;;;;5092818;28;20186;-57
2021/12/13 02:25:57;;;;;;;0.87;0.63;;;0.80;99.90;;;;;;5092472;28;20165;-58
2021/12/13 02:28:26;;;;;;;1.60;0.97;;;0.80;99.90;;;;;;5092608;28;20177;-59
2021/12/13 02:31:20;;;;;;;0.17;0.17;;;0.70;99.90;;;;;;5092263;28;20233;-57
2021/12/13 02:33:54;;;;;;;0.20;0.20;;;0.70;99.90;;;;;;5082270;28;20193;-58
2021/12/13 02:36:24;;;;;;;0.50;0.50;;;0.70;99.90;;;;;;5092367;28;20158;-56
2021/12/13 02:38:53;;;;;;;2.10;1.90;;;0.70;99.90;;;;;;5092375;28;20526;-56
2021/12/13 02:41:23;;;;;;;0.87;0.87;;;0.70;99.90;;;;;;5091423;28;20237;-58
2021/12/13 02:44:01;;;;;;;0.00;0.00;;;0.70;99.90;;;;;;5092501;28;20264;-58
2021/12/13 02:46:27;;;;;;;1.47;1.37;;;0.70;99.90;;;;;;5092512;28;20186;-58
2021/12/13 02:49:00;;;;;;;0.50;0.50;;;0.70;99.90;;;;;;5092490;28;20175;-59
2021/12/13 02:51:30;;;;;;;4.23;2.50;;;0.70;99.90;;;;;;5092884;28;20166;-58
2021/12/13 02:54:07;;;;;;;5.00;1.40;;;0.70;99.90;;;;;;5092099;28;20485;-60
2021/12/13 02:56:38;;;;;;;0.50;0.50;;;0.70;99.90;;;;;;5092289;28;20167;-58
2021/12/13 02:59:06;;;;;;;0.40;0.33;;;0.70;99.90;;;;;;5092170;28;20602;-59
2021/12/13 03:01:44;;;;;;;3.03;1.63;;;0.70;99.90;;;;;;5092483;28;20517;-59
2021/12/13 03:04:15;;;;;;;0.07;0.07;;;0.70;99.90;;;;;;5091702;28;20194;-60
2021/12/13 03:06:50;;;;;;;1.23;1.13;;;0.70;99.90;;;;;;5092351;28;20163;-54
2021/12/13 03:09:20;;;;;;;0.40;0.40;;;0.70;99.90;;;;;;5091933;28;20161;-58
2021/12/13 03:11:47;;;;;;;0.50;0.50;;;0.70;99.90;;;;;;5091625;28;20242;-58
2021/12/13 03:14:30;;;;;;;2.23;2.13;;;0.70;99.90;;;;;;5091167;28;20530;-58
2021/12/13 03:16:58;;;;;;;0.10;0.10;;;0.70;99.90;;;;;;5092178;28;20661;-58
2021/12/13 03:19:58;;;;;;;0.93;0.93;;;0.70;99.90;;;;;;5091566;28;20240;-58
2021/12/13 03:22:48;;;;;;;1.73;1.63;;;0.70;99.90;;;;;;5075410;28;20170;-58
2021/12/13 03:25:13;;;;;;;4.33;1.70;;;0.70;99.90;;;;;;5091660;28;20202;-58
2021/12/13 03:28:03;;;;;;;0.47;0.47;;;0.70;99.90;;;;;;5091558;28;20174;-58
2021/12/13 03:30:39;;;;;;;0.30;0.30;;;0.70;99.90;;;;;;5092053;28;20611;-58
2021/12/13 03:33:10;;;;;;;1.63;1.40;;;0.70;99.90;;;;;;5091567;28;20568;-58
2021/12/13 03:35:44;;;;;;;0.77;0.70;;;0.70;99.90;;;;;;5092020;28;20163;-59
2021/12/13 03:38:25;;;;;;;0.70;0.70;;;0.60;99.90;;;;;;5091712;28;20547;-59
2021/12/13 03:40:51;;;;;;;2.17;1.93;;;0.60;99.90;;;;;;5091846;28;20184;-58
2021/12/13 03:43:25;;;;;;;1.00;0.93;;;0.60;99.90;;;;;;5090974;28;20187;-56
2021/12/13 03:45:56;;;;;;;0.30;0.30;;;0.60;99.90;;;;;;5091708;28;20229;-58
2021/12/13 03:48:26;;;;;;;0.33;0.20;;;0.60;99.90;;;;;;5091395;28;20163;-57
2021/12/13 03:50:57;;;;;;;3.50;1.70;;;0.60;99.90;;;;;;5092098;28;20171;-58
2021/12/13 03:53:29;;;;;;;0.77;0.77;;;0.60;99.90;;;;;;5077335;28;20174;-57
2021/12/13 03:56:04;;;;;;;2.93;2.53;;;0.60;99.90;;;;;;5095165;28;20542;-59
2021/12/13 03:58:34;;;;;;;0.70;0.70;;;0.60;99.90;;;;;;5095289;28;20173;-58
2021/12/13 04:01:04;;;;;;;0.20;0.20;;;0.60;99.90;;;;;;5095238;28;20250;-59
2021/12/13 04:03:30;;;;;;;1.10;0.97;;;0.60;99.90;;;;;;5094928;28;20578;-58
2021/12/13 04:05:57;;;;;;;4.03;1.53;;;0.60;99.90;;;;;;5076959;28;20188;-57
2021/12/13 04:08:23;;;;;;;2.93;2.57;;;0.60;99.90;;;;;;5094896;28;20175;-57
2021/12/13 04:10:59;;;;;;;0.30;0.30;;;0.60;99.90;;;;;;5094497;28;20183;-58
2021/12/13 04:13:29;;;;;;;3.73;2.20;;;0.60;99.90;;;;;;5094812;28;20249;-59
2021/12/13 04:21:13;;;;;;;2.30;2.10;;;0.60;99.90;;;;;;5094748;28;20561;-58
2021/12/13 04:23:41;;;;;;;6.17;2.40;;;0.60;99.90;;;;;;5094644;28;20171;-58
2021/12/13 04:26:11;;;;;;;0.57;0.57;;;0.50;99.90;;;;;;5094317;28;20642;-59
2021/12/13 04:28:45;;;;;;;1.50;1.40;;;0.60;99.90;;;;;;5094385;28;20176;-59
2021/12/13 04:31:14;;;;;;;0.43;0.43;;;0.60;99.90;;;;;;5094103;28;20501;-58
2021/12/13 04:33:44;;;;;;;1.17;1.07;;;0.50;99.90;;;;;;5094190;28;20175;-58
2021/12/13 04:36:22;;;;;;;0.87;0.87;;;0.50;99.90;;;;;;5094120;28;20254;-59
2021/12/13 04:39:20;;;;;;;1.80;1.23;;;0.50;99.90;;;;;;5060485;28;20171;-58
2021/12/13 04:42:00;;;;;;;3.40;1.90;;;0.50;99.90;;;;;;5089154;28;20703;-60
2021/12/13 04:44:36;;;;;;;2.63;1.77;;;0.50;99.90;;;;;;5093837;28;20228;-56
2021/12/13 04:47:10;;;;;;;0.57;0.50;;;0.50;99.90;;;;;;5094004;28;20179;-58
2021/12/13 04:49:40;;;;;;;5.00;2.57;;;0.50;99.90;;;;;;5093700;28;20534;-57
2021/12/13 04:52:10;;;;;;;0.97;0.90;;;0.50;99.90;;;;;;5093891;28;20193;-59
2021/12/13 04:54:38;;;;;;;0.30;0.30;;;0.50;99.90;;;;;;5093443;28;20232;-59
2021/12/13 04:57:05;;;;;;;0.57;0.57;;;0.40;99.90;;;;;;5093841;28;20175;-56
2021/12/13 04:59:31;;;;;;;1.80;1.70;;;0.40;99.90;;;;;;5093144;28;20267;-56
2021/12/13 05:02:01;;;;;;;0.87;0.73;;;0.40;99.90;;;;;;5093687;28;20185;-59
2021/12/13 05:04:29;;;;;;;0.97;0.97;;;0.40;99.90;;;;;;5092879;28;20266;-59
2021/12/13 05:06:59;;;;;;;1.13;1.10;;;0.40;99.90;;;;;;5093312;28;20178;-58
2021/12/13 05:09:28;;;;;;;0.80;0.80;;;0.40;99.90;;;;;;5092630;28;20585;-56
2021/12/13 05:12:09;;;;;;;0.67;0.63;;;0.30;99.90;;;;;;5092812;28;20668;-56
2021/12/13 05:14:49;;;;;;;2.23;1.80;;;0.30;99.90;;;;;;5092312;28;20673;-56
2021/12/13 05:17:23;;;;;;;0.67;0.67;;;0.30;99.90;;;;;;5092840;28;20166;-55
2021/12/13 05:20:20;;;;;;;2.33;2.13;;;0.30;99.90;;;;;;5092871;28;20201;-56
2021/12/13 05:22:55;;;;;;;1.97;1.87;;;0.30;99.90;;;;;;5083398;28;20193;-58
2021/12/13 05:25:36;;;;;;;0.57;0.57;;;0.30;99.90;;;;;;5073764;28;20190;-56
2021/12/13 05:28:07;;;;;;;1.27;1.27;;;0.30;99.90;;;;;;5074723;28;20506;-57
2021/12/13 05:30:40;;;;;;;0.70;0.70;;;0.30;99.90;;;;;;5091852;28;20181;-56
2021/12/13 05:33:08;;;;;;;1.73;1.63;;;0.30;99.90;;;;;;5092193;28;20163;-57
2021/12/13 05:35:44;;;;;;;1.10;0.87;;;0.30;99.90;;;;;;5092331;28;20174;-60
2021/12/13 05:38:27;;;;;;;3.83;0.90;;;0.30;99.90;;;;;;5092338;28;20559;-62
2021/12/13 05:40:55;;;;;;;4.23;1.43;;;0.30;99.90;;;;;;5092491;28;20216;-58
2021/12/13 05:43:25;;;;;;;1.63;1.53;;;0.30;99.90;;;;;;5092200;28;20213;-60
2021/12/13 05:46:00;;;;;;;0.57;0.57;;;0.30;99.90;;;;;;5092277;28;20197;-60
2021/12/13 05:48:48;;;;;;;0.97;0.93;;;0.30;99.90;;;;;;5091824;28;20641;-60
2021/12/13 05:51:37;;;;;;;0.60;0.60;;;0.30;99.90;;;;;;5092197;28;20232;-55
2021/12/13 05:54:06;;;;;;;0.20;0.20;;;0.30;99.90;;;;;;5091828;28;20163;-60
2021/12/13 05:56:55;;;;;;;5.60;1.33;;;0.30;99.90;;;;;;5091567;28;20182;-57
2021/12/13 05:59:25;;;;;;;2.50;1.83;;;0.30;99.90;;;;;;5091858;28;20222;-60
2021/12/13 06:02:11;;;;;;;8.53;2.53;;;0.30;99.90;;;;;;5091620;28;20631;-58
2021/12/13 06:04:57;;;;;;;2.23;2.13;;;0.40;99.90;;;;;;5091695;28;20260;-57
2021/12/13 06:07:32;;;;;;;4.23;1.47;;;0.40;99.90;;;;;;5092004;28;20158;-60
2021/12/13 06:10:06;;;;;;;0.33;0.33;;;0.40;99.90;;;;;;5092067;28;20238;-59
2021/12/13 06:13:00;;;;;;;0.20;0.20;;;0.30;99.90;;;;;;5092289;28;20200;-60
2021/12/13 06:15:33;;;;;;;8.87;3.40;;;0.30;99.90;;;;;;5067243;28;20210;-60
2021/12/13 06:18:05;;;;;;;1.43;1.33;;;0.30;99.90;;;;;;5053740;28;20191;-60
2021/12/13 06:20:55;;;;;;;2.20;1.97;;;0.30;99.90;;;;;;5053725;28;20176;-63
2021/12/13 06:23:28;;;;;;;17.67;3.13;;;0.40;99.90;;;;;;5053357;28;20519;-60
2021/12/13 06:26:10;;;;;;;2.57;2.37;;;0.40;99.90;;;;;;5068125;28;20237;-57
2021/12/13 06:28:43;;;;;;;0.77;0.77;;;0.30;99.90;;;;;;5070153;28;20163;-59
2021/12/13 06:31:17;;;;;;;3.23;2.97;;;0.30;99.90;;;;;;5069512;28;20153;-64
2021/12/13 06:33:55;;;;;;;0.20;0.20;;;0.40;99.90;;;;;;5051655;28;20253;-61
2021/12/13 06:36:31;;;;;;;3.10;2.90;;;0.40;99.90;;;;;;5068490;28;20267;-58
2021/12/13 06:39:01;;;;;;;5.53;2.27;;;0.40;99.90;;;;;;5068305;28;20188;-57
2021/12/13 06:41:26;;;;;;;1.30;1.30;;;0.40;99.90;;;;;;5050378;28;20692;-60
2021/12/13 06:44:04;;;;;;;0.50;0.50;;;0.40;99.90;;;;;;5068485;28;20269;-61
2021/12/13 06:46:59;;;;;;;3.10;1.77;;;0.30;99.90;;;;;;5066082;28;20221;-60
2021/12/13 06:49:35;;;;;;;0.80;0.80;;;0.30;99.90;;;;;;5067656;28;20182;-59
2021/12/13 06:52:13;;;;;;;0.60;0.60;;;0.30;99.90;;;;;;5066779;28;20656;-64
2021/12/13 06:54:56;;;;;;;0.57;0.57;;;0.30;99.90;;;;;;5049396;28;20203;-63
2021/12/13 06:57:33;;;;;;;1.63;1.53;;;0.30;99.90;;;;;;5067332;28;20238;-63
2021/12/13 07:00:26;;;;;;;4.10;1.63;;;0.20;99.90;;;;;;5067902;28;20163;-61
2021/12/13 07:03:00;;;;;;;1.67;1.57;;;0.20;99.90;;;;;;5068572;28;20171;-66
2021/12/13 07:05:32;;;;;;;2.27;1.60;;;0.30;99.90;;;;;;5068811;28;20237;-59
2021/12/13 07:08:34;;;;;;;5.03;1.27;;;0.30;99.90;;;;;;5068836;28;20512;-62
2021/12/13 07:11:02;;;;;;;0.50;0.50;;;0.30;99.90;;;;;;5037018;28;20709;-60
2021/12/13 07:13:58;;;;;;;3.20;2.33;;;0.30;99.90;;;;;;5074366;28;20314;-60
2021/12/13 07:16:30;;;;;;;1.03;1.03;;;0.30;99.90;;;;;;5088141;28;20566;-61
2021/12/13 07:19:11;;;;;;;1.07;1.00;;;0.30;99.90;;;;;;5089720;28;20689;-58
2021/12/13 07:21:49;;;;;;;2.90;1.03;;;0.30;99.90;;;;;;5088922;28;20157;-58
2021/12/13 07:24:17;;;;;;;7.73;2.57;;;0.30;99.90;;;;;;5070190;28;20207;-62
2021/12/13 07:26:57;;;;;;;0.10;0.10;;;0.30;99.90;;;;;;5091233;28;20167;-57
2021/12/13 07:29:33;;;;;;;11.97;1.10;;;0.30;99.90;;;;;;5092120;28;20232;-54
2021/12/13 07:32:27;;;;;;;1.23;1.13;;;0.30;99.90;;;;;;5092965;28;20166;-51
2021/12/13 07:35:33;;;;;;;1.30;1.27;;;0.30;99.90;;;;;;5092628;28;20194;-55
2021/12/13 07:38:05;;;;;;;1.65;1.10;;;0.40;99.90;;;;;;4973506;28;20414;-59
2021/12/13 07:40:42;;;;;;;2.33;2.20;;;0.30;99.90;;;;;;4989862;28;20256;-63
2021/12/13 07:43:28;;;;;;;4.33;2.57;;;0.30;99.90;;;;;;5050658;28;20297;-56
2021/12/13 07:46:00;;;;;;;1.00;0.63;;;0.40;99.90;;;;;;5092398;28;20205;-60
2021/12/13 07:48:31;;;;;;;1.00;0.97;;;0.40;99.90;;;;;;5091900;28;20594;-58
2021/12/13 07:50:57;;;;;;;0.20;0.20;;;0.40;99.90;;;;;;5092516;28;20536;-56
2021/12/13 07:53:26;;;;;;;1.63;1.53;;;0.50;99.90;;;;;;5094011;28;20174;-62
2021/12/13 07:55:52;;;;;;;2.30;1.13;;;0.50;99.90;;;;;;5094201;28;20184;-60
2021/12/13 07:58:34;;;;;;;0.60;0.60;;;0.40;99.90;;;;;;5092789;28;20766;-61
2021/12/13 08:01:23;;;;;;;1.63;1.07;;;0.50;99.90;;;;;;5073939;28;20180;-60
2021/12/13 08:03:56;;;;;;;5.43;1.87;;;0.50;99.90;;;;;;5085386;28;20236;-64
2021/12/13 08:06:27;;;;;;;1.90;1.13;;;0.60;99.90;;;;;;5091638;28;20574;-62
2021/12/13 08:08:57;;;;;;;1.20;1.17;;;0.60;99.90;;;;;;5091819;28;20179;-60
2021/12/13 08:11:40;;;;;;;2.50;1.10;;;0.60;99.90;;;;;;5072543;28;20182;-62
2021/12/13 08:14:06;;;;;;;2.30;1.20;;;0.70;99.90;;;;;;5092129;28;20705;-61
2021/12/13 08:16:36;;;;;;;8.17;1.87;;;0.80;99.90;;;;;;5093227;28;20187;-60
2021/12/13 08:19:13;;;;;;;1.43;1.37;;;0.80;99.90;;;;;;5094451;28;20197;-61
2021/12/13 08:21:45;;;;;;;3.60;1.13;;;0.70;99.90;;;;;;5081096;28;20184;-62
2021/12/13 08:24:47;;;;;;;1.83;1.37;;;0.70;99.90;;;;;;5091885;28;20220;-61
2021/12/13 08:27:20;;;;;;;1.07;0.53;;;0.80;99.90;;;;;;5087218;28;20547;-62
2021/12/13 08:29:47;;;;;;;0.87;0.40;;;0.80;99.90;;;;;;5091833;28;20318;-61
2021/12/13 08:32:27;;;;;;;1.13;0.83;;;0.80;99.90;;;;;;5093172;28;20599;-62
2021/12/13 08:34:58;;;;;;;1.60;0.90;;;0.90;99.90;;;;;;5093044;28;20163;-66
2021/12/13 08:37:28;;;;;;;6.40;3.30;;;0.80;99.90;;;;;;5092567;28;20177;-63
2021/12/13 08:40:04;;;;;;;0.67;0.67;;;0.90;99.90;;;;;;5093164;28;20188;-65
2021/12/13 08:42:35;;;;;;;3.80;1.63;;;1.00;99.90;;;;;;5092457;28;20809;-63
2021/12/13 08:45:07;;;;;;;1.73;1.63;;;0.90;99.90;;;;;;5075469;28;20215;-63
2021/12/13 08:47:37;;;;;;;1.53;1.17;;;1.00;99.90;;;;;;5092161;28;20187;-55
2021/12/13 08:50:26;;;;;;;0.63;0.63;;;1.10;99.90;;;;;;5092002;28;20223;-65
2021/12/13 08:52:59;;;;;;;1.57;0.83;;;1.20;99.90;;;;;;5093591;28;20165;-63
2021/12/13 08:55:31;;;;;;;0.50;0.50;;;1.20;99.90;;;;;;5074766;28;20187;-64
2021/12/13 08:57:59;;;;;;;4.60;2.43;;;1.10;99.90;;;;;;5093305;28;20216;-63
2021/12/13 09:00:51;;;;;;;2.57;1.47;;;1.00;99.90;;;;;;5091878;28;20191;-64
2021/12/13 09:03:39;;;;;;;2.53;2.27;;;0.90;99.90;;;;;;5093043;28;20182;-70
2021/12/13 09:06:07;;;;;;;0.50;0.50;;;0.70;99.90;;;;;;5092356;28;20319;-60
2021/12/13 09:08:47;;;;;;;4.80;1.60;;;0.70;99.90;;;;;;5092356;28;20312;-65
2021/12/13 09:11:31;;;;;;;1.07;1.07;;;0.70;99.90;;;;;;5074682;28;20264;-64
2021/12/13 09:14:43;;;;;;;8.93;2.00;;;0.70;99.90;;;;;;5092270;28;20238;-64
2021/12/13 09:17:25;;;;;;;0.77;0.77;;;0.70;99.90;;;;;;5082862;28;20263;-65
2021/12/13 09:20:10;;;;;;;1.90;1.40;;;0.60;99.90;;;;;;5092060;28;20278;-64
2021/12/13 09:22:56;;;;;;;0.30;0.30;;;0.70;99.90;;;;;;5091843;28;20216;-66
2021/12/13 09:25:36;;;;;;;4.73;2.30;;;0.70;99.90;;;;;;5092176;28;20586;-62
2021/12/13 09:28:22;;;;;;;4.57;2.37;;;0.70;99.90;;;;;;5091689;28;20198;-64
2021/12/13 09:31:11;;;;;;;6.63;1.30;;;0.60;99.90;;;;;;5092285;28;20194;-62
2021/12/13 09:33:59;;;;;;;2.13;1.73;;;0.70;99.90;;;;;;5091451;28;20178;-63
2021/12/13 09:36:29;;;;;;;0.17;0.17;;;0.80;99.90;;;;;;5070973;28;20638;-64
2021/12/13 09:39:19;;;;;;;1.23;1.13;;;0.80;99.90;;;;;;5092238;28;20187;-62
2021/12/13 09:41:59;;;;;;;1.47;1.37;;;0.80;99.90;;;;;;5091383;28;20386;-63
2021/12/13 09:44:33;;;;;;;2.93;1.83;;;0.80;99.90;;;;;;5091286;28;20207;-63
2021/12/13 09:47:21;;;;;;;1.53;1.43;;;0.80;99.90;;;;;;5074707;28;20180;-63
2021/12/13 09:49:55;;;;;;;1.10;1.10;;;0.80;99.90;;;;;;5091983;28;20186;-62
2021/12/13 09:52:35;;;;;;;2.00;1.90;;;0.80;99.90;;;;;;5078467;28;20263;-61
2021/12/13 09:55:06;;;;;;;2.37;2.20;;;0.90;99.90;;;;;;5092116;28;20176;-64
2021/12/13 09:58:02;;;;;;;1.30;1.20;;;0.90;99.90;;;;;;5091373;28;20251;-65
2021/12/13 10:00:45;;;;;;;0.90;0.90;;;1.00;99.90;;;;;;5092574;28;20179;-64
2021/12/13 10:03:26;;;;;;;2.97;2.73;;;1.00;99.90;;;;;;5091003;28;20165;-62
2021/12/13 10:05:57;;;;;;;4.10;1.37;;;0.90;99.90;;;;;;5091212;28;20204;-63
2021/12/13 10:13:59;;;;;;;0.60;0.50;;;1.00;99.90;;;;;;5287638;23;20249;-64
2021/12/13 10:16:31;;;;;;;1.60;1.53;;;1.10;99.90;;;;;;5031080;28;20198;-63
2021/12/13 10:18:58;;;;;;;3.87;1.30;;;1.10;99.90;;;;;;5024444;28;20283;-60
2021/12/13 10:21:32;;;;;;;1.30;1.23;;;1.10;99.90;;;;;;5022692;28;20248;-62
2021/12/13 10:24:08;;;;;;;0.77;0.43;;;1.10;99.90;;;;;;5013387;28;20270;-66
2021/12/13 10:26:40;;;;;;;2.47;1.80;;;1.00;99.90;;;;;;5011304;28;20187;-60
2021/12/13 10:29:09;;;;;;;0.40;0.33;;;1.00;99.90;;;;;;5010841;28;20204;-61
2021/12/13 10:31:40;;;;;;;2.53;2.13;;;1.00;99.90;;;;;;5011130;28;20199;-63
2021/12/13 10:34:13;;;;;;;1.17;0.93;;;1.10;99.90;;;;;;5010111;28;20257;-63
2021/12/13 10:36:42;;;;;;;0.93;0.70;;;1.20;99.90;;;;;;5023281;28;20235;-64
2021/12/13 10:39:19;;;;;;;5.33;1.80;;;1.20;99.90;;;;;;5030370;28;20256;-58
2021/12/13 10:41:49;;;;;;;1.90;0.33;;;1.10;99.90;;;;;;5013258;28;20185;-61
2021/12/13 10:44:26;;;;;;;0.57;0.57;;;1.10;99.90;;;;;;5030090;28;20218;-63
2021/12/13 10:46:56;;;;;;;1.10;1.07;;;1.10;99.90;;;;;;5030755;28;20641;-61
2021/12/13 10:49:26;;;;;;;5.60;1.70;;;0.90;99.90;;;;;;5029894;28;20183;-64
2021/12/13 10:51:59;;;;;;;0.60;0.50;;;0.90;99.90;;;;;;5029981;28;20259;-60
2021/12/13 10:54:32;;;;;;;3.87;1.13;;;1.00;99.90;;;;;;5012515;28;20187;-64
2021/12/13 10:57:05;;;;;;;0.83;0.83;;;1.10;99.90;;;;;;5010593;28;20178;-64
2021/12/13 10:59:33;;;;;;;2.23;1.63;;;1.20;99.90;;;;;;5010135;28;20277;-65
2021/12/13 11:02:08;;;;;;;1.63;1.53;;;1.20;99.90;;;;;;5013095;28;20812;-63
2021/12/13 11:04:40;;;;;;;0.93;0.93;;;1.20;99.90;;;;;;5014373;28;20309;-66
2021/12/13 11:07:10;;;;;;;0.47;0.47;;;1.30;99.90;;;;;;5014623;28;20186;-62
2021/12/13 11:09:38;;;;;;;3.37;1.17;;;1.50;99.90;;;;;;4996751;28;20188;-65
2021/12/13 11:12:11;;;;;;;1.20;0.83;;;1.50;99.90;;;;;;5014053;28;20198;-62
2021/12/13 11:14:41;;;;;;;1.40;1.17;;;1.50;99.90;;;;;;5023768;28;20206;-64
2021/12/13 11:17:13;;;;;;;4.43;2.30;;;1.50;99.90;;;;;;5034020;28;20197;-62
2021/12/13 11:19:42;;;;;;;5.80;3.27;;;1.70;99.90;;;;;;5033708;28;20611;-64
2021/12/13 11:22:15;;;;;;;3.10;2.37;;;1.50;99.90;;;;;;5034140;28;20182;-62
2021/12/13 11:24:48;;;;;;;1.03;1.03;;;1.30;99.90;;;;;;5033729;28;20702;-61
2021/12/13 11:27:33;;;;;;;4.07;2.70;;;1.20;99.90;;;;;;5025696;28;20182;-63
2021/12/13 11:30:02;;;;;;;4.33;2.20;;;1.00;99.90;;;;;;4979757;28;20194;-63
2021/12/13 11:32:57;;;;;;;1.90;1.17;;;1.10;99.90;;;;;;5014255;28;20177;-61
2021/12/13 11:36:00;;;;;;;0.33;0.33;;;1.10;99.90;;;;;;5013428;28;20635;-63
2021/12/13 11:38:41;;;;;;;1.17;0.83;;;1.20;99.90;;;;;;4996330;28;20190;-62
2021/12/13 11:41:29;;;;;;;1.57;1.47;;;1.20;99.90;;;;;;5013460;28;20182;-64
2021/12/13 11:44:32;;;;;;;2.10;1.90;;;1.40;99.90;;;;;;5016655;28;20194;-62
2021/12/13 11:46:58;;;;;;;2.30;1.57;;;1.30;99.90;;;;;;5033895;28;20245;-63
2021/12/13 11:49:54;;;;;;;0.07;0.07;;;1.40;99.90;;;;;;5033367;28;20340;-61
2021/12/13 11:52:31;;;;;;;9.83;1.80;;;1.20;99.90;;;;;;5033501;28;20227;-64
2021/12/13 11:55:23;;;;;;;1.07;0.50;;;1.10;99.90;;;;;;5033196;28;20280;-63
2021/12/13 11:57:58;;;;;;;2.23;2.03;;;1.20;99.90;;;;;;5032660;28;20257;-62
2021/12/13 12:01:01;;;;;;;1.27;0.87;;;1.20;99.90;;;;;;5032978;28;20360;-63
2021/12/13 12:03:59;;;;;;;5.10;0.80;;;1.00;99.90;;;;;;5032423;28;20173;-64
2021/12/13 12:06:43;;;;;;;2.10;1.30;;;1.00;99.90;;;;;;5032665;28;20197;-62
2021/12/13 12:09:46;;;;;;;6.60;1.90;;;0.90;99.90;;;;;;5033388;28;20182;-61
2021/12/13 12:12:49;;;;;;;9.57;2.07;;;0.90;99.90;;;;;;5013346;28;20185;-63
2021/12/13 12:15:15;;;;;;;0.80;0.80;;;0.80;99.90;;;;;;5017999;28;20201;-61
2021/12/13 12:17:41;;;;;;;2.33;1.77;;;0.70;99.90;;;;;;5013508;28;20696;-62
2021/12/13 12:20:11;;;;;;;1.23;1.23;;;0.80;99.90;;;;;;4996886;28;20495;-63
2021/12/13 12:22:49;;;;;;;2.00;1.70;;;0.80;99.90;;;;;;5015142;28;20178;-62
2021/12/13 12:25:16;;;;;;;1.43;1.33;;;0.80;99.90;;;;;;5032372;28;20227;-62
2021/12/13 12:27:42;;;;;;;2.07;1.40;;;0.80;99.90;;;;;;5032578;28;20208;-60
2021/12/13 12:30:21;;;;;;;0.87;0.87;;;0.80;99.90;;;;;;5014874;28;20295;-63
2021/12/13 12:32:57;;;;;;;2.27;2.00;;;0.80;99.90;;;;;;5032832;28;20171;-65
2021/12/13 12:35:32;;;;;;;0.70;0.60;;;0.90;99.90;;;;;;5032800;28;20220;-63
2021/12/13 12:38:02;;;;;;;0.30;0.30;;;0.80;99.90;;;;;;5032595;28;20208;-63
2021/12/13 12:40:36;;;;;;;0.27;0.27;;;0.80;99.90;;;;;;5032553;28;20186;-62
2021/12/13 12:43:09;;;;;;;0.63;0.63;;;0.70;99.90;;;;;;5032374;28;20179;-62
2021/12/13 12:45:44;;;;;;;3.00;2.63;;;0.70;99.90;;;;;;5032281;28;20225;-61
2021/12/13 12:48:25;;;;;;;2.90;2.07;;;0.70;99.90;;;;;;5032038;28;20509;-61
2021/12/13 12:50:57;;;;;;;21.43;1.83;;;0.60;99.90;;;;;;5029908;28;20186;-64
2021/12/13 12:53:40;;;;;;;4.27;3.57;;;0.60;99.90;;;;;;5014492;28;20260;-57
2021/12/13 12:56:18;;;;;;;0.30;0.30;;;0.60;99.90;;;;;;5031869;28;20189;-68
2021/12/13 12:58:58;;;;;;;0.33;0.33;;;0.60;99.90;;;;;;5032655;28;20177;-64
2021/12/13 13:01:31;;;;;;;0.70;0.70;;;0.50;99.90;;;;;;5032111;28;20262;-62
2021/12/13 13:04:23;;;;;;;0.73;0.73;;;0.50;99.90;;;;;;5014520;28;20184;-60
2021/12/13 13:07:06;;;;;;;5.27;1.90;;;0.50;99.90;;;;;;5031794;28;20196;-62
2021/12/13 13:09:39;;;;;;;1.13;0.80;;;0.50;99.90;;;;;;5032742;28;20268;-63
2021/12/13 13:12:07;;;;;;;2.63;2.43;;;0.60;99.90;;;;;;5031791;28;20186;-62
2021/12/13 13:14:33;;;;;;;1.23;1.23;;;0.60;99.90;;;;;;5022472;28;20253;-65
2021/12/13 13:17:08;;;;;;;1.60;1.50;;;0.50;99.90;;;;;;5011966;28;20252;-62
2021/12/13 13:19:41;;;;;;;2.37;2.13;;;0.50;99.90;;;;;;5012187;28;20200;-63
2021/12/13 13:22:21;;;;;;;2.13;1.87;;;0.50;99.90;;;;;;5012628;28;20334;-62
2021/12/13 13:24:50;;;;;;;3.00;0.87;;;0.50;99.90;;;;;;5011612;28;20243;-62
2021/12/13 13:27:18;;;;;;;0.63;0.63;;;0.40;99.90;;;;;;5018534;28;20625;-63
2021/12/13 13:29:44;;;;;;;1.73;1.40;;;0.40;99.90;;;;;;5030735;28;20181;-63
2021/12/13 13:32:14;;;;;;;7.13;1.40;;;0.40;99.90;;;;;;5030559;28;20258;-66
2021/12/13 13:34:56;;;;;;;1.20;1.20;;;0.40;99.90;;;;;;5031644;28;20266;-62
2021/12/13 13:37:25;;;;;;;0.17;0.17;;;0.30;99.90;;;;;;5013160;28;20205;-62
2021/12/13 13:39:57;;;;;;;0.37;0.37;;;0.30;99.90;;;;;;5013352;28;20195;-61
2021/12/13 13:42:25;;;;;;;12.13;1.80;;;0.30;99.90;;;;;;5012843;28;20606;-61
2021/12/13 13:45:00;;;;;;;1.73;0.93;;;0.20;99.90;;;;;;5030797;28;20213;-61
2021/12/13 13:47:29;;;;;;;3.20;1.17;;;0.20;99.90;;;;;;5029223;28;20233;-63
2021/12/13 13:49:56;;;;;;;0.40;0.40;;;0.20;99.90;;;;;;5029623;28;20678;-63
2021/12/13 13:52:27;;;;;;;2.23;1.70;;;0.10;99.90;;;;;;5029705;28;20234;-63
2021/12/13 13:55:01;;;;;;;1.27;1.23;;;0.10;99.90;;;;;;5029944;28;20196;-64
2021/12/13 13:57:30;;;;;;;1.77;1.67;;;0.10;99.90;;;;;;5029499;28;20653;-63
2021/12/13 13:59:57;;;;;;;0.60;0.60;;;0.10;99.90;;;;;;5012127;28;20192;-61
2021/12/13 14:02:42;;;;;;;12.43;2.37;;;0.00;99.90;;;;;;5031273;28;20185;-62
2021/12/13 14:05:10;;;;;;;0.40;0.40;;;0.10;99.90;;;;;;5031499;28;20591;-60